sensor_id;sensor_type;location;lat;lon;timestamp;P1;durP1;ratioP1;P2;durP2;ratioP2
44704;SDS011;30431;48.520;9.046;2023-12-20T00:01:22;3.63;;;2.20;;
44704;SDS011;30431;48.520;9.046;2023-12-20T00:03:49;3.78;;;2.35;;
44704;SDS011;30431;48.520;9.046;2023-12-20T00:06:16;3.55;;;2.08;;
44704;SDS011;30431;48.520;9.046;2023-12-20T00:08:44;2.88;;;2.08;;
44704;SDS011;30431;48.520;9.046;2023-12-20T00:11:10;5.68;;;3.10;;
44704;SDS011;30431;48.520;9.046;2023-12-20T00:13:37;4.70;;;2.90;;
44704;SDS011;30431;48.520;9.046;2023-12-20T00:16:07;3.72;;;2.50;;
44704;SDS011;30431;48.520;9.046;2023-12-20T00:18:34;6.15;;;2.50;;
44704;SDS011;30431;48.520;9.046;2023-12-20T00:21:03;4.05;;;2.47;;
44704;SDS011;30431;48.520;9.046;2023-12-20T00:23:32;3.45;;;2.30;;
44704;SDS011;30431;48.520;9.046;2023-12-20T00:26:00;3.17;;;2.13;;
44704;SDS011;30431;48.520;9.046;2023-12-20T00:28:29;3.30;;;2.20;;
44704;SDS011;30431;48.520;9.046;2023-12-20T00:30:56;3.40;;;2.20;;
44704;SDS011;30431;48.520;9.046;2023-12-20T00:33:25;3.28;;;2.28;;
44704;SDS011;30431;48.520;9.046;2023-12-20T00:35:53;3.78;;;2.35;;
44704;SDS011;30431;48.520;9.046;2023-12-20T00:38:19;3.30;;;1.92;;
44704;SDS011;30431;48.520;9.046;2023-12-20T00:40:47;2.15;;;1.80;;
44704;SDS011;30431;48.520;9.046;2023-12-20T00:43:16;2.30;;;1.88;;
44704;SDS011;30431;48.520;9.046;2023-12-20T00:45:43;3.17;;;2.00;;
44704;SDS011;30431;48.520;9.046;2023-12-20T00:48:10;2.95;;;1.98;;
44704;SDS011;30431;48.520;9.046;2023-12-20T00:50:37;3.10;;;2.10;;
44704;SDS011;30431;48.520;9.046;2023-12-20T00:53:07;2.70;;;2.00;;
44704;SDS011;30431;48.520;9.046;2023-12-20T00:55:36;3.92;;;2.30;;
44704;SDS011;30431;48.520;9.046;2023-12-20T00:58:03;4.00;;;2.30;;
44704;SDS011;30431;48.520;9.046;2023-12-20T01:00:32;3.90;;;2.35;;
44704;SDS011;30431;48.520;9.046;2023-12-20T01:03:02;4.93;;;2.30;;
44704;SDS011;30431;48.520;9.046;2023-12-20T01:05:31;3.28;;;2.13;;
44704;SDS011;30431;48.520;9.046;2023-12-20T01:07:58;2.65;;;2.15;;
44704;SDS011;30431;48.520;9.046;2023-12-20T01:10:25;3.25;;;2.30;;
44704;SDS011;30431;48.520;9.046;2023-12-20T01:12:57;3.65;;;1.98;;
44704;SDS011;30431;48.520;9.046;2023-12-20T01:15:26;2.58;;;2.10;;
44704;SDS011;30431;48.520;9.046;2023-12-20T01:17:55;2.88;;;2.10;;
44704;SDS011;30431;48.520;9.046;2023-12-20T01:20:25;2.50;;;1.85;;
44704;SDS011;30431;48.520;9.046;2023-12-20T01:22:54;3.10;;;1.90;;
44704;SDS011;30431;48.520;9.046;2023-12-20T01:25:21;2.83;;;2.00;;
44704;SDS011;30431;48.520;9.046;2023-12-20T01:27:48;2.88;;;1.75;;
44704;SDS011;30431;48.520;9.046;2023-12-20T01:30:16;2.40;;;1.80;;
44704;SDS011;30431;48.520;9.046;2023-12-20T01:32:48;4.53;;;1.80;;
44704;SDS011;30431;48.520;9.046;2023-12-20T01:35:17;3.35;;;2.00;;
44704;SDS011;30431;48.520;9.046;2023-12-20T01:37:45;4.30;;;2.03;;
44704;SDS011;30431;48.520;9.046;2023-12-20T01:40:12;1.98;;;1.52;;
44704;SDS011;30431;48.520;9.046;2023-12-20T01:42:41;3.92;;;1.83;;
44704;SDS011;30431;48.520;9.046;2023-12-20T01:45:09;3.10;;;1.73;;
44704;SDS011;30431;48.520;9.046;2023-12-20T01:47:36;3.70;;;1.80;;
44704;SDS011;30431;48.520;9.046;2023-12-20T01:50:03;3.40;;;1.58;;
44704;SDS011;30431;48.520;9.046;2023-12-20T01:52:31;4.75;;;2.03;;
44704;SDS011;30431;48.520;9.046;2023-12-20T01:55:00;3.72;;;1.58;;
44704;SDS011;30431;48.520;9.046;2023-12-20T01:57:30;2.85;;;1.58;;
44704;SDS011;30431;48.520;9.046;2023-12-20T01:59:59;2.80;;;1.60;;
44704;SDS011;30431;48.520;9.046;2023-12-20T02:02:30;3.85;;;1.52;;
44704;SDS011;30431;48.520;9.046;2023-12-20T02:04:57;2.05;;;1.48;;
44704;SDS011;30431;48.520;9.046;2023-12-20T02:07:31;1.92;;;1.50;;
44704;SDS011;30431;48.520;9.046;2023-12-20T02:10:01;2.88;;;1.55;;
44704;SDS011;30431;48.520;9.046;2023-12-20T02:14:55;2.28;;;1.52;;
44704;SDS011;30431;48.520;9.046;2023-12-20T02:17:25;2.60;;;1.48;;
44704;SDS011;30431;48.520;9.046;2023-12-20T02:19:53;1.98;;;1.50;;
44704;SDS011;30431;48.520;9.046;2023-12-20T02:22:20;1.65;;;1.42;;
44704;SDS011;30431;48.520;9.046;2023-12-20T02:24:48;2.28;;;1.45;;
44704;SDS011;30431;48.520;9.046;2023-12-20T02:27:15;2.85;;;1.65;;
44704;SDS011;30431;48.520;9.046;2023-12-20T02:29:46;3.45;;;1.55;;
44704;SDS011;30431;48.520;9.046;2023-12-20T02:32:14;2.33;;;1.75;;
44704;SDS011;30431;48.520;9.046;2023-12-20T02:34:46;3.03;;;1.58;;
44704;SDS011;30431;48.520;9.046;2023-12-20T02:37:16;2.20;;;1.60;;
44704;SDS011;30431;48.520;9.046;2023-12-20T02:39:43;2.55;;;1.70;;
44704;SDS011;30431;48.520;9.046;2023-12-20T02:42:12;1.98;;;1.30;;
44704;SDS011;30431;48.520;9.046;2023-12-20T02:44:40;1.70;;;1.50;;
44704;SDS011;30431;48.520;9.046;2023-12-20T02:47:07;1.80;;;1.50;;
44704;SDS011;30431;48.520;9.046;2023-12-20T02:49:36;2.25;;;1.55;;
44704;SDS011;30431;48.520;9.046;2023-12-20T02:52:03;2.03;;;1.52;;
44704;SDS011;30431;48.520;9.046;2023-12-20T02:54:35;2.13;;;1.50;;
44704;SDS011;30431;48.520;9.046;2023-12-20T02:57:05;1.80;;;1.50;;
44704;SDS011;30431;48.520;9.046;2023-12-20T02:59:32;2.25;;;1.50;;
44704;SDS011;30431;48.520;9.046;2023-12-20T03:01:59;2.42;;;1.48;;
44704;SDS011;30431;48.520;9.046;2023-12-20T03:04:29;1.70;;;1.60;;
44704;SDS011;30431;48.520;9.046;2023-12-20T03:06:56;1.55;;;1.40;;
44704;SDS011;30431;48.520;9.046;2023-12-20T03:09:23;2.17;;;1.50;;
44704;SDS011;30431;48.520;9.046;2023-12-20T03:11:50;1.77;;;1.50;;
44704;SDS011;30431;48.520;9.046;2023-12-20T03:14:19;1.73;;;1.40;;
44704;SDS011;30431;48.520;9.046;2023-12-20T03:16:46;1.48;;;1.38;;
44704;SDS011;30431;48.520;9.046;2023-12-20T03:19:16;2.65;;;1.60;;
44704;SDS011;30431;48.520;9.046;2023-12-20T03:21:46;2.67;;;1.60;;
44704;SDS011;30431;48.520;9.046;2023-12-20T03:24:14;1.98;;;1.60;;
44704;SDS011;30431;48.520;9.046;2023-12-20T03:26:41;5.20;;;1.77;;
44704;SDS011;30431;48.520;9.046;2023-12-20T03:29:08;1.50;;;1.40;;
44704;SDS011;30431;48.520;9.046;2023-12-20T03:31:35;4.22;;;1.50;;
44704;SDS011;30431;48.520;9.046;2023-12-20T03:34:04;1.48;;;1.38;;
44704;SDS011;30431;48.520;9.046;2023-12-20T03:36:35;2.05;;;1.40;;
44704;SDS011;30431;48.520;9.046;2023-12-20T03:39:02;1.90;;;1.40;;
44704;SDS011;30431;48.520;9.046;2023-12-20T03:41:29;1.58;;;1.40;;
44704;SDS011;30431;48.520;9.046;2023-12-20T03:43:56;2.65;;;1.40;;
44704;SDS011;30431;48.520;9.046;2023-12-20T03:46:26;2.28;;;1.60;;
44704;SDS011;30431;48.520;9.046;2023-12-20T03:48:53;2.17;;;1.48;;
44704;SDS011;30431;48.520;9.046;2023-12-20T03:51:20;1.48;;;1.38;;
44704;SDS011;30431;48.520;9.046;2023-12-20T03:53:49;2.20;;;1.73;;
44704;SDS011;30431;48.520;9.046;2023-12-20T03:56:19;1.73;;;1.42;;
44704;SDS011;30431;48.520;9.046;2023-12-20T03:58:46;1.50;;;1.38;;
44704;SDS011;30431;48.520;9.046;2023-12-20T04:01:13;2.58;;;1.58;;
44704;SDS011;30431;48.520;9.046;2023-12-20T04:03:40;2.55;;;1.58;;
44704;SDS011;30431;48.520;9.046;2023-12-20T04:06:07;3.42;;;2.00;;
44704;SDS011;30431;48.520;9.046;2023-12-20T04:11:01;2.05;;;1.50;;
44704;SDS011;30431;48.520;9.046;2023-12-20T04:13:28;2.22;;;1.50;;
44704;SDS011;30431;48.520;9.046;2023-12-20T04:15:58;1.98;;;1.50;;
44704;SDS011;30431;48.520;9.046;2023-12-20T04:18:25;1.98;;;1.60;;
44704;SDS011;30431;48.520;9.046;2023-12-20T04:20:52;1.55;;;1.30;;
44704;SDS011;30431;48.520;9.046;2023-12-20T04:23:22;1.58;;;1.48;;
44704;SDS011;30431;48.520;9.046;2023-12-20T04:25:49;1.65;;;1.55;;
44704;SDS011;30431;48.520;9.046;2023-12-20T04:28:16;1.50;;;1.40;;
44704;SDS011;30431;48.520;9.046;2023-12-20T04:30:45;2.65;;;1.70;;
44704;SDS011;30431;48.520;9.046;2023-12-20T04:33:12;3.38;;;1.70;;
44704;SDS011;30431;48.520;9.046;2023-12-20T04:35:39;1.77;;;1.40;;
44704;SDS011;30431;48.520;9.046;2023-12-20T04:38:07;2.45;;;1.60;;
44704;SDS011;30431;48.520;9.046;2023-12-20T04:40:36;1.60;;;1.50;;
44704;SDS011;30431;48.520;9.046;2023-12-20T04:43:03;2.83;;;1.65;;
44704;SDS011;30431;48.520;9.046;2023-12-20T04:45:30;2.13;;;1.50;;
44704;SDS011;30431;48.520;9.046;2023-12-20T04:47:57;2.25;;;1.67;;
44704;SDS011;30431;48.520;9.046;2023-12-20T04:50:27;3.25;;;1.67;;
44704;SDS011;30431;48.520;9.046;2023-12-20T04:52:58;1.30;;;1.20;;
44704;SDS011;30431;48.520;9.046;2023-12-20T04:55:26;1.33;;;1.20;;
44704;SDS011;30431;48.520;9.046;2023-12-20T04:57:53;2.10;;;1.17;;
44704;SDS011;30431;48.520;9.046;2023-12-20T05:00:21;1.50;;;1.40;;
44704;SDS011;30431;48.520;9.046;2023-12-20T05:02:48;2.05;;;1.05;;
44704;SDS011;30431;48.520;9.046;2023-12-20T05:05:15;1.42;;;1.33;;
44704;SDS011;30431;48.520;9.046;2023-12-20T05:07:44;1.15;;;0.80;;
44704;SDS011;30431;48.520;9.046;2023-12-20T05:10:11;1.55;;;1.20;;
44704;SDS011;30431;48.520;9.046;2023-12-20T05:12:41;3.75;;;1.60;;
44704;SDS011;30431;48.520;9.046;2023-12-20T05:15:09;2.05;;;1.10;;
44704;SDS011;30431;48.520;9.046;2023-12-20T05:17:36;4.13;;;2.10;;
44704;SDS011;30431;48.520;9.046;2023-12-20T05:20:05;8.65;;;3.38;;
44704;SDS011;30431;48.520;9.046;2023-12-20T05:22:37;8.77;;;3.83;;
44704;SDS011;30431;48.520;9.046;2023-12-20T05:25:04;13.40;;;4.90;;
44704;SDS011;30431;48.520;9.046;2023-12-20T05:29:58;5.40;;;1.70;;
44704;SDS011;30431;48.520;9.046;2023-12-20T05:32:25;7.07;;;3.20;;
44704;SDS011;30431;48.520;9.046;2023-12-20T05:34:52;10.52;;;3.75;;
44704;SDS011;30431;48.520;9.046;2023-12-20T05:37:22;9.95;;;3.45;;
44704;SDS011;30431;48.520;9.046;2023-12-20T05:39:49;13.30;;;4.50;;
44704;SDS011;30431;48.520;9.046;2023-12-20T05:42:19;9.38;;;4.25;;
44704;SDS011;30431;48.520;9.046;2023-12-20T05:44:47;10.95;;;4.35;;
44704;SDS011;30431;48.520;9.046;2023-12-20T05:47:20;10.55;;;4.50;;
44704;SDS011;30431;48.520;9.046;2023-12-20T05:49:50;23.20;;;7.03;;
44704;SDS011;30431;48.520;9.046;2023-12-20T05:52:17;15.88;;;5.50;;
44704;SDS011;30431;48.520;9.046;2023-12-20T05:54:46;14.63;;;5.30;;
44704;SDS011;30431;48.520;9.046;2023-12-20T05:57:15;16.13;;;5.85;;
44704;SDS011;30431;48.520;9.046;2023-12-20T05:59:45;15.20;;;5.05;;
44704;SDS011;30431;48.520;9.046;2023-12-20T06:02:12;10.13;;;3.10;;
44704;SDS011;30431;48.520;9.046;2023-12-20T06:04:44;13.77;;;4.00;;
44704;SDS011;30431;48.520;9.046;2023-12-20T06:07:12;13.63;;;5.05;;
44704;SDS011;30431;48.520;9.046;2023-12-20T06:09:39;19.05;;;4.80;;
44704;SDS011;30431;48.520;9.046;2023-12-20T06:12:07;20.02;;;6.20;;
44704;SDS011;30431;48.520;9.046;2023-12-20T06:14:36;10.90;;;4.80;;
44704;SDS011;30431;48.520;9.046;2023-12-20T06:17:03;5.72;;;2.40;;
44704;SDS011;30431;48.520;9.046;2023-12-20T06:19:33;4.53;;;2.55;;
44704;SDS011;30431;48.520;9.046;2023-12-20T06:22:02;4.47;;;2.70;;
44704;SDS011;30431;48.520;9.046;2023-12-20T06:24:29;6.88;;;4.20;;
44704;SDS011;30431;48.520;9.046;2023-12-20T06:26:59;6.03;;;4.25;;
44704;SDS011;30431;48.520;9.046;2023-12-20T06:29:26;16.50;;;11.38;;
44704;SDS011;30431;48.520;9.046;2023-12-20T06:31:52;12.50;;;8.18;;
44704;SDS011;30431;48.520;9.046;2023-12-20T06:34:22;6.78;;;3.50;;
44704;SDS011;30431;48.520;9.046;2023-12-20T06:39:16;1.60;;;1.50;;
44704;SDS011;30431;48.520;9.046;2023-12-20T06:41:45;1.88;;;1.25;;
44704;SDS011;30431;48.520;9.046;2023-12-20T06:44:12;2.15;;;1.63;;
44704;SDS011;30431;48.520;9.046;2023-12-20T06:46:42;1.67;;;1.50;;
44704;SDS011;30431;48.520;9.046;2023-12-20T06:49:13;1.52;;;1.42;;
44704;SDS011;30431;48.520;9.046;2023-12-20T06:51:42;2.10;;;1.80;;
44704;SDS011;30431;48.520;9.046;2023-12-20T06:54:09;3.47;;;1.90;;
44704;SDS011;30431;48.520;9.046;2023-12-20T06:56:38;4.43;;;2.65;;
44704;SDS011;30431;48.520;9.046;2023-12-20T06:59:05;5.18;;;2.97;;
44704;SDS011;30431;48.520;9.046;2023-12-20T07:01:32;2.75;;;2.10;;
44704;SDS011;30431;48.520;9.046;2023-12-20T07:06:29;2.05;;;1.60;;
44704;SDS011;30431;48.520;9.046;2023-12-20T07:08:56;4.50;;;2.80;;
44704;SDS011;30431;48.520;9.046;2023-12-20T07:11:25;5.20;;;2.83;;
44704;SDS011;30431;48.520;9.046;2023-12-20T07:13:52;3.30;;;2.47;;
44704;SDS011;30431;48.520;9.046;2023-12-20T07:16:20;3.30;;;2.67;;
44704;SDS011;30431;48.520;9.046;2023-12-20T07:18:49;3.35;;;2.50;;
44704;SDS011;30431;48.520;9.046;2023-12-20T07:21:16;3.75;;;1.90;;
44704;SDS011;30431;48.520;9.046;2023-12-20T07:23:43;2.58;;;2.00;;
44704;SDS011;30431;48.520;9.046;2023-12-20T07:26:12;4.15;;;2.10;;
44704;SDS011;30431;48.520;9.046;2023-12-20T07:28:40;3.60;;;1.90;;
44704;SDS011;30431;48.520;9.046;2023-12-20T07:31:09;3.67;;;2.05;;
44704;SDS011;30431;48.520;9.046;2023-12-20T07:33:36;2.60;;;2.00;;
44704;SDS011;30431;48.520;9.046;2023-12-20T07:36:05;2.00;;;1.80;;
44704;SDS011;30431;48.520;9.046;2023-12-20T07:38:32;2.55;;;2.10;;
44704;SDS011;30431;48.520;9.046;2023-12-20T07:41:24;3.05;;;2.20;;
44704;SDS011;30431;48.520;9.046;2023-12-20T07:43:51;3.30;;;2.40;;
44704;SDS011;30431;48.520;9.046;2023-12-20T07:46:27;4.15;;;2.13;;
44704;SDS011;30431;48.520;9.046;2023-12-20T07:48:54;4.00;;;2.67;;
44704;SDS011;30431;48.520;9.046;2023-12-20T07:51:22;4.95;;;3.00;;
44704;SDS011;30431;48.520;9.046;2023-12-20T07:53:51;4.30;;;2.97;;
44704;SDS011;30431;48.520;9.046;2023-12-20T07:56:19;5.80;;;3.20;;
44704;SDS011;30431;48.520;9.046;2023-12-20T07:58:47;5.05;;;3.25;;
44704;SDS011;30431;48.520;9.046;2023-12-20T08:01:23;5.20;;;3.50;;
44704;SDS011;30431;48.520;9.046;2023-12-20T08:03:50;13.05;;;6.68;;
44704;SDS011;30431;48.520;9.046;2023-12-20T08:06:20;7.50;;;4.10;;
44704;SDS011;30431;48.520;9.046;2023-12-20T08:08:50;7.40;;;3.80;;
44704;SDS011;30431;48.520;9.046;2023-12-20T08:11:28;10.57;;;4.30;;
44704;SDS011;30431;48.520;9.046;2023-12-20T08:13:57;7.28;;;3.50;;
44704;SDS011;30431;48.520;9.046;2023-12-20T08:16:32;4.68;;;2.53;;
44704;SDS011;30431;48.520;9.046;2023-12-20T08:19:02;5.25;;;3.15;;
44704;SDS011;30431;48.520;9.046;2023-12-20T08:21:29;3.95;;;2.65;;
44704;SDS011;30431;48.520;9.046;2023-12-20T08:24:02;4.95;;;2.72;;
44704;SDS011;30431;48.520;9.046;2023-12-20T08:26:32;5.60;;;3.00;;
44704;SDS011;30431;48.520;9.046;2023-12-20T08:29:01;5.50;;;3.10;;
44704;SDS011;30431;48.520;9.046;2023-12-20T08:31:31;8.55;;;3.20;;
44704;SDS011;30431;48.520;9.046;2023-12-20T08:34:01;7.53;;;3.22;;
44704;SDS011;30431;48.520;9.046;2023-12-20T08:36:30;4.00;;;2.47;;
44704;SDS011;30431;48.520;9.046;2023-12-20T08:39:00;4.25;;;2.22;;
44704;SDS011;30431;48.520;9.046;2023-12-20T08:41:35;5.45;;;3.08;;
44704;SDS011;30431;48.520;9.046;2023-12-20T08:44:03;8.52;;;4.38;;
44704;SDS011;30431;48.520;9.046;2023-12-20T08:46:32;7.00;;;3.53;;
44704;SDS011;30431;48.520;9.046;2023-12-20T08:49:10;7.28;;;3.58;;
44704;SDS011;30431;48.520;9.046;2023-12-20T08:51:37;4.10;;;2.95;;
44704;SDS011;30431;48.520;9.046;2023-12-20T08:54:07;3.83;;;2.63;;
44704;SDS011;30431;48.520;9.046;2023-12-20T08:56:35;5.25;;;3.90;;
44704;SDS011;30431;48.520;9.046;2023-12-20T08:59:04;5.18;;;4.00;;
44704;SDS011;30431;48.520;9.046;2023-12-20T09:01:31;5.40;;;4.10;;
44704;SDS011;30431;48.520;9.046;2023-12-20T09:04:07;5.82;;;3.20;;
44704;SDS011;30431;48.520;9.046;2023-12-20T09:06:34;2.72;;;2.05;;
44704;SDS011;30431;48.520;9.046;2023-12-20T09:09:04;2.35;;;1.80;;
44704;SDS011;30431;48.520;9.046;2023-12-20T09:13:58;2.50;;;1.70;;
44704;SDS011;30431;48.520;9.046;2023-12-20T09:16:25;5.65;;;2.08;;
44704;SDS011;30431;48.520;9.046;2023-12-20T09:18:53;3.15;;;1.95;;
44704;SDS011;30431;48.520;9.046;2023-12-20T09:21:20;5.88;;;2.22;;
44704;SDS011;30431;48.520;9.046;2023-12-20T09:23:49;3.88;;;2.10;;
44704;SDS011;30431;48.520;9.046;2023-12-20T09:26:16;5.03;;;2.13;;
44704;SDS011;30431;48.520;9.046;2023-12-20T09:28:44;3.75;;;1.90;;
44704;SDS011;30431;48.520;9.046;2023-12-20T09:31:14;6.15;;;1.80;;
44704;SDS011;30431;48.520;9.046;2023-12-20T09:33:41;5.97;;;2.20;;
44704;SDS011;30431;48.520;9.046;2023-12-20T09:38:35;5.47;;;2.05;;
44704;SDS011;30431;48.520;9.046;2023-12-20T09:41:02;6.43;;;2.50;;
44704;SDS011;30431;48.520;9.046;2023-12-20T09:43:31;5.30;;;1.90;;
44704;SDS011;30431;48.520;9.046;2023-12-20T09:46:09;7.78;;;1.90;;
44704;SDS011;30431;48.520;9.046;2023-12-20T09:48:40;5.07;;;1.70;;
44704;SDS011;30431;48.520;9.046;2023-12-20T09:51:08;5.53;;;2.15;;
44704;SDS011;30431;48.520;9.046;2023-12-20T09:53:35;2.83;;;1.65;;
44704;SDS011;30431;48.520;9.046;2023-12-20T09:56:04;4.70;;;2.17;;
44704;SDS011;30431;48.520;9.046;2023-12-20T09:58:32;3.58;;;2.00;;
44704;SDS011;30431;48.520;9.046;2023-12-20T10:01:02;4.88;;;2.13;;
44704;SDS011;30431;48.520;9.046;2023-12-20T10:03:32;7.60;;;2.53;;
44704;SDS011;30431;48.520;9.046;2023-12-20T10:06:00;5.18;;;2.25;;
44704;SDS011;30431;48.520;9.046;2023-12-20T10:08:28;5.15;;;2.30;;
44704;SDS011;30431;48.520;9.046;2023-12-20T10:10:56;9.70;;;2.58;;
44704;SDS011;30431;48.520;9.046;2023-12-20T10:13:31;8.25;;;2.80;;
44704;SDS011;30431;48.520;9.046;2023-12-20T10:16:00;6.05;;;2.97;;
44704;SDS011;30431;48.520;9.046;2023-12-20T10:18:28;8.07;;;2.55;;
44704;SDS011;30431;48.520;9.046;2023-12-20T10:21:05;3.97;;;2.40;;
44704;SDS011;30431;48.520;9.046;2023-12-20T10:23:36;3.00;;;2.13;;
44704;SDS011;30431;48.520;9.046;2023-12-20T10:26:05;4.55;;;2.38;;
44704;SDS011;30431;48.520;9.046;2023-12-20T10:28:33;4.72;;;2.22;;
44704;SDS011;30431;48.520;9.046;2023-12-20T10:31:01;4.05;;;2.08;;
44704;SDS011;30431;48.520;9.046;2023-12-20T10:33:30;6.28;;;1.90;;
44704;SDS011;30431;48.520;9.046;2023-12-20T10:36:01;4.25;;;1.88;;
44704;SDS011;30431;48.520;9.046;2023-12-20T10:38:29;4.60;;;2.10;;
44704;SDS011;30431;48.520;9.046;2023-12-20T10:40:57;3.53;;;1.73;;
44704;SDS011;30431;48.520;9.046;2023-12-20T10:43:28;4.00;;;1.90;;
44704;SDS011;30431;48.520;9.046;2023-12-20T10:45:57;6.45;;;2.17;;
44704;SDS011;30431;48.520;9.046;2023-12-20T10:48:25;5.53;;;2.13;;
44704;SDS011;30431;48.520;9.046;2023-12-20T10:50:56;5.80;;;2.13;;
44704;SDS011;30431;48.520;9.046;2023-12-20T10:53:24;4.22;;;2.00;;
44704;SDS011;30431;48.520;9.046;2023-12-20T10:55:52;3.25;;;1.90;;
44704;SDS011;30431;48.520;9.046;2023-12-20T10:58:23;4.60;;;1.83;;
44704;SDS011;30431;48.520;9.046;2023-12-20T11:00:57;7.20;;;2.55;;
44704;SDS011;30431;48.520;9.046;2023-12-20T11:03:32;3.75;;;1.90;;
44704;SDS011;30431;48.520;9.046;2023-12-20T11:06:05;4.75;;;2.10;;
44704;SDS011;30431;48.520;9.046;2023-12-20T11:08:47;5.20;;;1.73;;
44704;SDS011;30431;48.520;9.046;2023-12-20T11:14:32;7.32;;;1.90;;
44704;SDS011;30431;48.520;9.046;2023-12-20T11:17:10;3.60;;;1.77;;
44704;SDS011;30431;48.520;9.046;2023-12-20T11:22:20;3.25;;;2.13;;
44704;SDS011;30431;48.520;9.046;2023-12-20T11:27:15;5.47;;;2.35;;
44704;SDS011;30431;48.520;9.046;2023-12-20T11:29:45;10.77;;;2.08;;
44704;SDS011;30431;48.520;9.046;2023-12-20T11:34:56;5.47;;;2.20;;
44704;SDS011;30431;48.520;9.046;2023-12-20T11:37:29;6.25;;;2.35;;
44704;SDS011;30431;48.520;9.046;2023-12-20T11:40:00;3.67;;;1.80;;
44704;SDS011;30431;48.520;9.046;2023-12-20T11:42:38;5.38;;;1.70;;
44704;SDS011;30431;48.520;9.046;2023-12-20T11:45:15;7.32;;;1.77;;
44704;SDS011;30431;48.520;9.046;2023-12-20T11:47:48;5.28;;;1.80;;
44704;SDS011;30431;48.520;9.046;2023-12-20T11:50:17;6.30;;;2.42;;
44704;SDS011;30431;48.520;9.046;2023-12-20T11:52:47;7.07;;;2.10;;
44704;SDS011;30431;48.520;9.046;2023-12-20T11:55:15;5.80;;;2.47;;
44704;SDS011;30431;48.520;9.046;2023-12-20T11:57:42;3.28;;;1.85;;
44704;SDS011;30431;48.520;9.046;2023-12-20T12:00:13;7.88;;;1.95;;
44704;SDS011;30431;48.520;9.046;2023-12-20T12:02:41;6.22;;;2.08;;
44704;SDS011;30431;48.520;9.046;2023-12-20T12:05:12;6.18;;;1.92;;
44704;SDS011;30431;48.520;9.046;2023-12-20T12:10:06;5.32;;;1.98;;
44704;SDS011;30431;48.520;9.046;2023-12-20T12:12:34;5.18;;;2.00;;
44704;SDS011;30431;48.520;9.046;2023-12-20T12:17:29;6.57;;;2.00;;
44704;SDS011;30431;48.520;9.046;2023-12-20T12:20:05;6.20;;;2.25;;
44704;SDS011;30431;48.520;9.046;2023-12-20T12:22:34;4.55;;;1.80;;
44704;SDS011;30431;48.520;9.046;2023-12-20T12:25:11;5.88;;;2.00;;
44704;SDS011;30431;48.520;9.046;2023-12-20T12:30:10;7.53;;;2.45;;
44704;SDS011;30431;48.520;9.046;2023-12-20T12:32:39;6.90;;;2.00;;
44704;SDS011;30431;48.520;9.046;2023-12-20T12:35:07;8.68;;;2.28;;
44704;SDS011;30431;48.520;9.046;2023-12-20T12:37:37;8.13;;;2.55;;
44704;SDS011;30431;48.520;9.046;2023-12-20T12:40:10;7.10;;;2.60;;
44704;SDS011;30431;48.520;9.046;2023-12-20T12:42:42;9.95;;;2.60;;
44704;SDS011;30431;48.520;9.046;2023-12-20T12:45:11;6.50;;;2.70;;
44704;SDS011;30431;48.520;9.046;2023-12-20T12:47:38;7.22;;;2.30;;
44704;SDS011;30431;48.520;9.046;2023-12-20T12:50:09;5.82;;;2.20;;
44704;SDS011;30431;48.520;9.046;2023-12-20T12:55:07;11.50;;;4.55;;
44704;SDS011;30431;48.520;9.046;2023-12-20T12:57:37;7.45;;;2.13;;
44704;SDS011;30431;48.520;9.046;2023-12-20T13:00:04;8.90;;;2.00;;
44704;SDS011;30431;48.520;9.046;2023-12-20T13:02:37;6.35;;;2.35;;
44704;SDS011;30431;48.520;9.046;2023-12-20T13:05:04;6.15;;;2.38;;
44704;SDS011;30431;48.520;9.046;2023-12-20T13:07:34;12.70;;;6.25;;
44704;SDS011;30431;48.520;9.046;2023-12-20T13:10:04;5.10;;;2.00;;
44704;SDS011;30431;48.520;9.046;2023-12-20T13:12:32;10.45;;;1.90;;
44704;SDS011;30431;48.520;9.046;2023-12-20T13:14:59;7.97;;;1.63;;
44704;SDS011;30431;48.520;9.046;2023-12-20T13:17:26;10.65;;;2.72;;
44704;SDS011;30431;48.520;9.046;2023-12-20T13:19:58;11.20;;;2.35;;
44704;SDS011;30431;48.520;9.046;2023-12-20T13:22:26;5.22;;;1.98;;
44704;SDS011;30431;48.520;9.046;2023-12-20T13:24:53;5.50;;;2.60;;
44704;SDS011;30431;48.520;9.046;2023-12-20T13:27:20;9.82;;;2.22;;
44704;SDS011;30431;48.520;9.046;2023-12-20T13:29:47;12.20;;;2.55;;
44704;SDS011;30431;48.520;9.046;2023-12-20T13:32:16;7.63;;;2.47;;
44704;SDS011;30431;48.520;9.046;2023-12-20T13:34:46;10.35;;;2.72;;
44704;SDS011;30431;48.520;9.046;2023-12-20T13:37:17;9.02;;;2.85;;
44704;SDS011;30431;48.520;9.046;2023-12-20T13:39:45;6.97;;;2.15;;
44704;SDS011;30431;48.520;9.046;2023-12-20T13:42:12;5.90;;;2.10;;
44704;SDS011;30431;48.520;9.046;2023-12-20T13:44:41;8.85;;;2.25;;
44704;SDS011;30431;48.520;9.046;2023-12-20T13:47:11;7.38;;;1.80;;
44704;SDS011;30431;48.520;9.046;2023-12-20T13:49:38;4.85;;;2.25;;
44704;SDS011;30431;48.520;9.046;2023-12-20T13:52:05;7.20;;;2.53;;
44704;SDS011;30431;48.520;9.046;2023-12-20T13:54:32;6.90;;;2.20;;
44704;SDS011;30431;48.520;9.046;2023-12-20T13:57:02;7.70;;;2.17;;
44704;SDS011;30431;48.520;9.046;2023-12-20T13:59:42;7.32;;;2.28;;
44704;SDS011;30431;48.520;9.046;2023-12-20T14:02:09;6.97;;;2.45;;
44704;SDS011;30431;48.520;9.046;2023-12-20T14:04:40;4.70;;;2.00;;
44704;SDS011;30431;48.520;9.046;2023-12-20T14:07:10;5.78;;;2.30;;
44704;SDS011;30431;48.520;9.046;2023-12-20T14:09:39;11.02;;;2.33;;
44704;SDS011;30431;48.520;9.046;2023-12-20T14:12:14;10.02;;;3.63;;
44704;SDS011;30431;48.520;9.046;2023-12-20T14:14:41;7.28;;;1.80;;
44704;SDS011;30431;48.520;9.046;2023-12-20T14:17:08;8.70;;;2.00;;
44704;SDS011;30431;48.520;9.046;2023-12-20T14:19:38;5.80;;;2.10;;
44704;SDS011;30431;48.520;9.046;2023-12-20T14:22:08;5.82;;;2.20;;
44704;SDS011;30431;48.520;9.046;2023-12-20T14:24:35;10.65;;;2.40;;
44704;SDS011;30431;48.520;9.046;2023-12-20T14:27:02;10.52;;;4.85;;
44704;SDS011;30431;48.520;9.046;2023-12-20T14:29:31;4.68;;;2.00;;
44704;SDS011;30431;48.520;9.046;2023-12-20T14:31:59;8.60;;;2.58;;
44704;SDS011;30431;48.520;9.046;2023-12-20T14:34:27;6.65;;;2.17;;
44704;SDS011;30431;48.520;9.046;2023-12-20T14:36:54;6.63;;;2.40;;
44704;SDS011;30431;48.520;9.046;2023-12-20T14:41:51;6.88;;;2.40;;
44704;SDS011;30431;48.520;9.046;2023-12-20T14:46:48;6.57;;;2.17;;
44704;SDS011;30431;48.520;9.046;2023-12-20T14:49:15;5.70;;;2.05;;
44704;SDS011;30431;48.520;9.046;2023-12-20T14:51:43;7.13;;;2.60;;
44704;SDS011;30431;48.520;9.046;2023-12-20T14:54:11;5.65;;;2.17;;
44704;SDS011;30431;48.520;9.046;2023-12-20T14:56:37;11.15;;;2.67;;
44704;SDS011;30431;48.520;9.046;2023-12-20T14:59:07;5.30;;;1.85;;
44704;SDS011;30431;48.520;9.046;2023-12-20T15:01:37;7.10;;;2.65;;
44704;SDS011;30431;48.520;9.046;2023-12-20T15:04:07;9.52;;;3.33;;
44704;SDS011;30431;48.520;9.046;2023-12-20T15:06:37;9.80;;;4.05;;
44704;SDS011;30431;48.520;9.046;2023-12-20T15:09:04;8.23;;;2.90;;
44704;SDS011;30431;48.520;9.046;2023-12-20T15:11:37;6.55;;;2.53;;
44704;SDS011;30431;48.520;9.046;2023-12-20T15:14:04;8.00;;;2.53;;
44704;SDS011;30431;48.520;9.046;2023-12-20T15:16:31;5.38;;;2.47;;
44704;SDS011;30431;48.520;9.046;2023-12-20T15:18:58;5.68;;;2.25;;
44704;SDS011;30431;48.520;9.046;2023-12-20T15:21:25;8.10;;;2.25;;
44704;SDS011;30431;48.520;9.046;2023-12-20T15:23:58;6.60;;;2.20;;
44704;SDS011;30431;48.520;9.046;2023-12-20T15:26:41;5.07;;;1.92;;
44704;SDS011;30431;48.520;9.046;2023-12-20T15:29:09;9.65;;;4.15;;
44704;SDS011;30431;48.520;9.046;2023-12-20T15:31:42;6.80;;;2.20;;
44704;SDS011;30431;48.520;9.046;2023-12-20T15:34:12;6.13;;;2.30;;
44704;SDS011;30431;48.520;9.046;2023-12-20T15:36:40;5.57;;;2.30;;
44704;SDS011;30431;48.520;9.046;2023-12-20T15:39:11;8.00;;;2.50;;